Apostolos A — 9HKR6 — position and weather

sailwx.info

Track history (hours):
 
Tides and Currents Weather Stations Pressure Air Temp Water Temp Dewpoint Dewpoint Depression Visibility Wind Speed Wind Dir Waves Ship Positions

Apostolos A

Last reported at 2014-Oct-13 04:33 UTC. Time now 2014-Oct-31 09:56 UTC.
Position N 44°35' E 037°45'.
Warning: this ship's position is 18 days out of date.

Length 182 m; draft 8.2 m.

Type: Tanker. MMSI: 248594000.

Date/timePositionNaut miles runAvg speedWind from/ knotsBaromVisibWave heightAir tempDewpointWater temp
2014-Oct-13 04:33N 44°35' E 037°45'7 7.4
2014-Oct-13 03:34N 44°42' E 037°49'2 2.0
2014-Oct-13 02:20N 44°44' E 037°47'0 0.0
2014-Oct-13 01:32N 44°44' E 037°47'0 0.0
2014-Oct-13 00:20N 44°44' E 037°47'0 0.0
2014-Oct-12 23:32N 44°44' E 037°47'0 0.0
2014-Oct-12 22:32N 44°44' E 037°47'0 0.0
2014-Oct-12 21:29N 44°44' E 037°47'0 0.0
2014-Oct-12 20:32N 44°44' E 037°47'0 0.0
2014-Oct-12 19:23N 44°44' E 037°47'0 0.0
2014-Oct-12 18:20N 44°44' E 037°47'0 0.0
2014-Oct-12 17:26N 44°44' E 037°47'0 0.0
2014-Oct-12 16:32N 44°44' E 037°47'0 0.0
2014-Oct-12 15:32N 44°44' E 037°47'0 0.0
2014-Oct-12 14:29N 44°44' E 037°47'0 0.0
2014-Oct-12 13:32N 44°44' E 037°47'0 0.0
2014-Oct-12 12:23N 44°44' E 037°47'0 0.0
2014-Oct-12 11:32N 44°44' E 037°47'0 0.0
2014-Oct-12 10:32N 44°44' E 037°47'0 0.0
2014-Oct-12 09:32N 44°44' E 037°47'0 0.0
2014-Oct-12 08:32N 44°44' E 037°47'0 0.0
2014-Oct-12 07:29N 44°44' E 037°47'0 0.0
2014-Oct-12 00:32N 44°44' E 037°47'0 0.0
2014-Oct-11 21:17N 44°44' E 037°47'0 0.0
2014-Oct-11 20:14N 44°44' E 037°47'0 0.0
2014-Oct-11 19:23N 44°44' E 037°47'0 0.0
2014-Oct-11 18:32N 44°44' E 037°47'0 0.0
2014-Oct-11 17:23N 44°44' E 037°47'0 0.0
2014-Oct-11 16:34N 44°44' E 037°47'4 3.9
2014-Oct-11 15:34N 44°40' E 037°50'8 7.4
2014-Oct-11 14:27N 44°32' E 037°52'1 1.3
2014-Oct-11 13:26N 44°32' E 037°50'  
Track history (hours):
 
Tides and Currents Weather Stations Pressure Air Temp Water Temp Dewpoint Dewpoint Depression Visibility Wind Speed Wind Dir Waves Ship Positions

Apostolos A

Last reported at 2014-Oct-13 04:33 UTC. Time now 2014-Oct-31 09:56 UTC.
Position N 44°35' E 037°45'.
Warning: this ship's position is 18 days out of date.

Length 182 m; draft 8.2 m.

Type: Tanker. MMSI: 248594000.

Date/timePositionNaut miles runAvg speedWind from/ knotsBaromVisibWave heightAir tempDewpointWater temp
2014-Oct-13 04:33N 44°35' E 037°45'7 7.4
2014-Oct-13 03:34N 44°42' E 037°49'2 2.0
2014-Oct-13 02:20N 44°44' E 037°47'0 0.0
2014-Oct-13 01:32N 44°44' E 037°47'0 0.0
2014-Oct-13 00:20N 44°44' E 037°47'0 0.0
2014-Oct-12 23:32N 44°44' E 037°47'0 0.0
2014-Oct-12 22:32N 44°44' E 037°47'0 0.0
2014-Oct-12 21:29N 44°44' E 037°47'0 0.0
2014-Oct-12 20:32N 44°44' E 037°47'0 0.0
2014-Oct-12 19:23N 44°44' E 037°47'0 0.0
2014-Oct-12 18:20N 44°44' E 037°47'0 0.0
2014-Oct-12 17:26N 44°44' E 037°47'0 0.0
2014-Oct-12 16:32N 44°44' E 037°47'0 0.0
2014-Oct-12 15:32N 44°44' E 037°47'0 0.0
2014-Oct-12 14:29N 44°44' E 037°47'0 0.0
2014-Oct-12 13:32N 44°44' E 037°47'0 0.0
2014-Oct-12 12:23N 44°44' E 037°47'0 0.0
2014-Oct-12 11:32N 44°44' E 037°47'0 0.0
2014-Oct-12 10:32N 44°44' E 037°47'0 0.0
2014-Oct-12 09:32N 44°44' E 037°47'0 0.0
2014-Oct-12 08:32N 44°44' E 037°47'0 0.0
2014-Oct-12 07:29N 44°44' E 037°47'0 0.0
2014-Oct-12 00:32N 44°44' E 037°47'0 0.0
2014-Oct-11 21:17N 44°44' E 037°47'0 0.0
2014-Oct-11 20:14N 44°44' E 037°47'0 0.0
2014-Oct-11 19:23N 44°44' E 037°47'0 0.0
2014-Oct-11 18:32N 44°44' E 037°47'0 0.0
2014-Oct-11 17:23N 44°44' E 037°47'0 0.0
2014-Oct-11 16:34N 44°44' E 037°47'4 3.9
2014-Oct-11 15:34N 44°40' E 037°50'8 7.4
2014-Oct-11 14:27N 44°32' E 037°52'1 1.3
2014-Oct-11 13:26N 44°32' E 037°50'  

Dump ship's entire track history